sensor_id;sensor_type;location;lat;lon;timestamp;P1;durP1;ratioP1;P2;durP2;ratioP2
53245;SDS011;39569;51.090;-1.786;2023-05-29T00:02:05;22.60;;;12.38;;
53245;SDS011;39569;51.090;-1.786;2023-05-29T00:04:31;17.38;;;11.95;;
53245;SDS011;39569;51.090;-1.786;2023-05-29T00:06:58;32.65;;;11.73;;
53245;SDS011;39569;51.090;-1.786;2023-05-29T00:09:25;18.73;;;11.68;;
53245;SDS011;39569;51.090;-1.786;2023-05-29T00:11:53;26.10;;;12.30;;
53245;SDS011;39569;51.090;-1.786;2023-05-29T00:14:21;18.63;;;11.75;;
53245;SDS011;39569;51.090;-1.786;2023-05-29T00:16:49;19.45;;;12.48;;
53245;SDS011;39569;51.090;-1.786;2023-05-29T00:19:16;18.13;;;12.32;;
53245;SDS011;39569;51.090;-1.786;2023-05-29T00:21:44;18.75;;;10.15;;
53245;SDS011;39569;51.090;-1.786;2023-05-29T00:24:13;16.95;;;9.23;;
53245;SDS011;39569;51.090;-1.786;2023-05-29T00:26:39;18.65;;;9.15;;
53245;SDS011;39569;51.090;-1.786;2023-05-29T00:29:06;10.27;;;7.50;;
53245;SDS011;39569;51.090;-1.786;2023-05-29T00:31:34;15.55;;;8.63;;
53245;SDS011;39569;51.090;-1.786;2023-05-29T00:34:02;16.20;;;7.60;;
53245;SDS011;39569;51.090;-1.786;2023-05-29T00:36:28;13.73;;;7.72;;
53245;SDS011;39569;51.090;-1.786;2023-05-29T00:38:56;18.38;;;8.00;;
53245;SDS011;39569;51.090;-1.786;2023-05-29T00:41:23;14.85;;;8.13;;
53245;SDS011;39569;51.090;-1.786;2023-05-29T00:43:50;23.40;;;7.50;;
53245;SDS011;39569;51.090;-1.786;2023-05-29T00:46:16;15.25;;;7.53;;
53245;SDS011;39569;51.090;-1.786;2023-05-29T00:48:46;10.30;;;6.70;;
53245;SDS011;39569;51.090;-1.786;2023-05-29T00:51:15;12.43;;;6.80;;
53245;SDS011;39569;51.090;-1.786;2023-05-29T00:53:42;16.52;;;7.75;;
53245;SDS011;39569;51.090;-1.786;2023-05-29T00:56:11;12.63;;;6.45;;
53245;SDS011;39569;51.090;-1.786;2023-05-29T00:58:38;18.60;;;6.35;;
53245;SDS011;39569;51.090;-1.786;2023-05-29T01:01:06;15.90;;;6.93;;
53245;SDS011;39569;51.090;-1.786;2023-05-29T01:03:33;9.63;;;5.70;;
53245;SDS011;39569;51.090;-1.786;2023-05-29T01:06:02;12.00;;;6.38;;
53245;SDS011;39569;51.090;-1.786;2023-05-29T01:08:29;17.40;;;5.68;;
53245;SDS011;39569;51.090;-1.786;2023-05-29T01:10:58;9.45;;;5.95;;
53245;SDS011;39569;51.090;-1.786;2023-05-29T01:13:31;24.23;;;7.77;;
53245;SDS011;39569;51.090;-1.786;2023-05-29T01:16:03;14.00;;;6.85;;
53245;SDS011;39569;51.090;-1.786;2023-05-29T01:18:39;20.60;;;7.72;;
53245;SDS011;39569;51.090;-1.786;2023-05-29T01:21:17;11.93;;;5.63;;
53245;SDS011;39569;51.090;-1.786;2023-05-29T01:23:53;15.07;;;6.25;;
53245;SDS011;39569;51.090;-1.786;2023-05-29T01:26:42;21.42;;;7.25;;
53245;SDS011;39569;51.090;-1.786;2023-05-29T01:29:18;13.25;;;6.03;;
53245;SDS011;39569;51.090;-1.786;2023-05-29T01:31:50;13.82;;;6.47;;
53245;SDS011;39569;51.090;-1.786;2023-05-29T01:34:17;12.93;;;6.78;;
53245;SDS011;39569;51.090;-1.786;2023-05-29T01:36:44;15.02;;;5.80;;
53245;SDS011;39569;51.090;-1.786;2023-05-29T01:39:12;10.63;;;5.65;;
53245;SDS011;39569;51.090;-1.786;2023-05-29T01:41:40;10.02;;;5.82;;
53245;SDS011;39569;51.090;-1.786;2023-05-29T01:44:09;9.00;;;5.45;;
53245;SDS011;39569;51.090;-1.786;2023-05-29T01:46:38;13.20;;;6.18;;
53245;SDS011;39569;51.090;-1.786;2023-05-29T01:49:07;11.45;;;5.35;;
53245;SDS011;39569;51.090;-1.786;2023-05-29T01:51:35;9.68;;;5.80;;
53245;SDS011;39569;51.090;-1.786;2023-05-29T01:54:02;27.92;;;6.57;;
53245;SDS011;39569;51.090;-1.786;2023-05-29T01:56:30;14.13;;;6.07;;
53245;SDS011;39569;51.090;-1.786;2023-05-29T01:58:58;17.17;;;6.10;;
53245;SDS011;39569;51.090;-1.786;2023-05-29T02:01:27;11.23;;;5.75;;
53245;SDS011;39569;51.090;-1.786;2023-05-29T02:03:54;17.95;;;6.30;;
53245;SDS011;39569;51.090;-1.786;2023-05-29T02:06:21;14.40;;;6.30;;
53245;SDS011;39569;51.090;-1.786;2023-05-29T02:08:48;13.43;;;5.70;;
53245;SDS011;39569;51.090;-1.786;2023-05-29T02:11:15;14.70;;;6.70;;
53245;SDS011;39569;51.090;-1.786;2023-05-29T02:13:42;15.30;;;5.82;;
53245;SDS011;39569;51.090;-1.786;2023-05-29T02:16:10;9.65;;;5.22;;
53245;SDS011;39569;51.090;-1.786;2023-05-29T02:18:37;22.75;;;5.40;;
53245;SDS011;39569;51.090;-1.786;2023-05-29T02:21:04;17.73;;;6.25;;
53245;SDS011;39569;51.090;-1.786;2023-05-29T02:23:31;15.63;;;5.88;;
53245;SDS011;39569;51.090;-1.786;2023-05-29T02:25:57;13.32;;;5.85;;
53245;SDS011;39569;51.090;-1.786;2023-05-29T02:28:24;17.55;;;6.95;;
53245;SDS011;39569;51.090;-1.786;2023-05-29T02:30:51;18.10;;;6.30;;
53245;SDS011;39569;51.090;-1.786;2023-05-29T02:33:19;13.77;;;6.50;;
53245;SDS011;39569;51.090;-1.786;2023-05-29T02:35:46;16.33;;;6.75;;
53245;SDS011;39569;51.090;-1.786;2023-05-29T02:38:13;17.27;;;7.15;;
53245;SDS011;39569;51.090;-1.786;2023-05-29T02:40:40;14.25;;;6.25;;
53245;SDS011;39569;51.090;-1.786;2023-05-29T02:43:07;11.65;;;5.65;;
53245;SDS011;39569;51.090;-1.786;2023-05-29T02:45:35;14.45;;;6.38;;
53245;SDS011;39569;51.090;-1.786;2023-05-29T02:48:02;12.02;;;5.35;;
53245;SDS011;39569;51.090;-1.786;2023-05-29T02:50:30;10.45;;;5.47;;
53245;SDS011;39569;51.090;-1.786;2023-05-29T02:52:57;14.65;;;6.53;;
53245;SDS011;39569;51.090;-1.786;2023-05-29T02:55:23;12.52;;;5.38;;
53245;SDS011;39569;51.090;-1.786;2023-05-29T02:57:50;12.73;;;5.75;;
53245;SDS011;39569;51.090;-1.786;2023-05-29T03:00:20;16.05;;;6.63;;
53245;SDS011;39569;51.090;-1.786;2023-05-29T03:02:46;6.00;;;4.18;;
53245;SDS011;39569;51.090;-1.786;2023-05-29T03:05:13;17.83;;;6.97;;
53245;SDS011;39569;51.090;-1.786;2023-05-29T03:07:43;15.77;;;5.82;;
53245;SDS011;39569;51.090;-1.786;2023-05-29T03:10:09;19.55;;;6.97;;
53245;SDS011;39569;51.090;-1.786;2023-05-29T03:12:36;14.63;;;6.63;;
53245;SDS011;39569;51.090;-1.786;2023-05-29T03:15:04;16.13;;;6.68;;
53245;SDS011;39569;51.090;-1.786;2023-05-29T03:17:32;15.23;;;6.53;;
53245;SDS011;39569;51.090;-1.786;2023-05-29T03:20:01;14.55;;;6.68;;
53245;SDS011;39569;51.090;-1.786;2023-05-29T03:22:31;12.93;;;6.22;;
53245;SDS011;39569;51.090;-1.786;2023-05-29T03:24:59;23.33;;;7.13;;
53245;SDS011;39569;51.090;-1.786;2023-05-29T03:27:25;13.43;;;6.07;;
53245;SDS011;39569;51.090;-1.786;2023-05-29T03:29:52;16.63;;;6.47;;
53245;SDS011;39569;51.090;-1.786;2023-05-29T03:32:19;12.13;;;6.30;;
53245;SDS011;39569;51.090;-1.786;2023-05-29T03:34:46;11.98;;;5.25;;
53245;SDS011;39569;51.090;-1.786;2023-05-29T03:37:13;15.88;;;2.40;;
53245;SDS011;39569;51.090;-1.786;2023-05-29T03:39:40;4.70;;;3.63;;
53245;SDS011;39569;51.090;-1.786;2023-05-29T03:42:08;8.43;;;4.80;;
53245;SDS011;39569;51.090;-1.786;2023-05-29T03:44:35;14.77;;;6.50;;
53245;SDS011;39569;51.090;-1.786;2023-05-29T03:47:02;13.65;;;6.78;;
53245;SDS011;39569;51.090;-1.786;2023-05-29T03:49:29;18.05;;;6.25;;
53245;SDS011;39569;51.090;-1.786;2023-05-29T03:51:55;25.58;;;3.95;;
53245;SDS011;39569;51.090;-1.786;2023-05-29T03:54:22;18.85;;;7.03;;
53245;SDS011;39569;51.090;-1.786;2023-05-29T03:56:49;13.30;;;6.22;;
53245;SDS011;39569;51.090;-1.786;2023-05-29T03:59:17;3.83;;;3.40;;
53245;SDS011;39569;51.090;-1.786;2023-05-29T04:01:44;6.57;;;3.15;;
53245;SDS011;39569;51.090;-1.786;2023-05-29T04:04:11;4.45;;;2.72;;
53245;SDS011;39569;51.090;-1.786;2023-05-29T04:06:38;27.67;;;6.47;;
53245;SDS011;39569;51.090;-1.786;2023-05-29T04:09:05;12.10;;;2.97;;
53245;SDS011;39569;51.090;-1.786;2023-05-29T04:11:33;14.13;;;6.80;;
53245;SDS011;39569;51.090;-1.786;2023-05-29T04:14:00;14.93;;;6.18;;
53245;SDS011;39569;51.090;-1.786;2023-05-29T04:16:28;9.25;;;5.68;;
53245;SDS011;39569;51.090;-1.786;2023-05-29T04:18:55;18.35;;;6.55;;
53245;SDS011;39569;51.090;-1.786;2023-05-29T04:21:22;12.13;;;6.57;;
53245;SDS011;39569;51.090;-1.786;2023-05-29T04:23:49;13.10;;;3.83;;
53245;SDS011;39569;51.090;-1.786;2023-05-29T04:26:15;10.75;;;5.93;;
53245;SDS011;39569;51.090;-1.786;2023-05-29T04:28:42;13.02;;;5.63;;
53245;SDS011;39569;51.090;-1.786;2023-05-29T04:31:09;20.40;;;3.33;;
53245;SDS011;39569;51.090;-1.786;2023-05-29T04:33:40;13.63;;;6.38;;
53245;SDS011;39569;51.090;-1.786;2023-05-29T04:36:10;14.90;;;4.63;;
53245;SDS011;39569;51.090;-1.786;2023-05-29T04:38:37;6.07;;;2.92;;
53245;SDS011;39569;51.090;-1.786;2023-05-29T04:41:04;20.80;;;5.78;;
53245;SDS011;39569;51.090;-1.786;2023-05-29T04:43:33;18.27;;;6.22;;
53245;SDS011;39569;51.090;-1.786;2023-05-29T04:46:02;17.83;;;6.20;;
53245;SDS011;39569;51.090;-1.786;2023-05-29T04:48:29;19.60;;;6.43;;
53245;SDS011;39569;51.090;-1.786;2023-05-29T04:50:58;5.47;;;2.50;;
53245;SDS011;39569;51.090;-1.786;2023-05-29T04:53:25;21.35;;;2.75;;
53245;SDS011;39569;51.090;-1.786;2023-05-29T04:55:52;12.38;;;3.08;;
53245;SDS011;39569;51.090;-1.786;2023-05-29T04:58:18;30.50;;;8.25;;
53245;SDS011;39569;51.090;-1.786;2023-05-29T05:00:46;28.17;;;2.75;;
53245;SDS011;39569;51.090;-1.786;2023-05-29T05:03:14;15.57;;;3.45;;
53245;SDS011;39569;51.090;-1.786;2023-05-29T05:05:41;24.17;;;7.63;;
53245;SDS011;39569;51.090;-1.786;2023-05-29T05:08:10;13.02;;;6.25;;
53245;SDS011;39569;51.090;-1.786;2023-05-29T05:10:37;15.18;;;6.10;;
53245;SDS011;39569;51.090;-1.786;2023-05-29T05:13:04;12.07;;;3.05;;
53245;SDS011;39569;51.090;-1.786;2023-05-29T05:15:32;18.27;;;6.63;;
53245;SDS011;39569;51.090;-1.786;2023-05-29T05:17:59;18.88;;;6.68;;
53245;SDS011;39569;51.090;-1.786;2023-05-29T05:20:25;17.80;;;3.28;;
53245;SDS011;39569;51.090;-1.786;2023-05-29T05:22:52;18.00;;;6.22;;
53245;SDS011;39569;51.090;-1.786;2023-05-29T05:25:20;17.15;;;5.65;;
53245;SDS011;39569;51.090;-1.786;2023-05-29T05:27:47;17.58;;;5.88;;
53245;SDS011;39569;51.090;-1.786;2023-05-29T05:30:14;15.38;;;5.60;;
53245;SDS011;39569;51.090;-1.786;2023-05-29T05:32:40;24.42;;;7.43;;
53245;SDS011;39569;51.090;-1.786;2023-05-29T05:35:07;15.00;;;6.65;;
53245;SDS011;39569;51.090;-1.786;2023-05-29T05:37:36;13.60;;;4.65;;
53245;SDS011;39569;51.090;-1.786;2023-05-29T05:40:03;19.52;;;7.15;;
53245;SDS011;39569;51.090;-1.786;2023-05-29T05:42:32;16.10;;;6.55;;
53245;SDS011;39569;51.090;-1.786;2023-05-29T05:44:59;15.43;;;7.25;;
53245;SDS011;39569;51.090;-1.786;2023-05-29T05:47:26;19.50;;;5.95;;
53245;SDS011;39569;51.090;-1.786;2023-05-29T05:49:53;15.82;;;6.80;;
53245;SDS011;39569;51.090;-1.786;2023-05-29T05:52:21;17.08;;;6.50;;
53245;SDS011;39569;51.090;-1.786;2023-05-29T05:54:48;10.20;;;5.07;;
53245;SDS011;39569;51.090;-1.786;2023-05-29T05:57:15;11.02;;;4.55;;
53245;SDS011;39569;51.090;-1.786;2023-05-29T05:59:43;13.05;;;6.53;;
53245;SDS011;39569;51.090;-1.786;2023-05-29T06:02:09;15.10;;;5.72;;
53245;SDS011;39569;51.090;-1.786;2023-05-29T06:04:36;16.77;;;5.72;;
53245;SDS011;39569;51.090;-1.786;2023-05-29T06:07:03;11.88;;;4.50;;
53245;SDS011;39569;51.090;-1.786;2023-05-29T06:09:31;18.10;;;8.05;;
53245;SDS011;39569;51.090;-1.786;2023-05-29T06:11:58;14.98;;;6.22;;
53245;SDS011;39569;51.090;-1.786;2023-05-29T06:14:25;18.77;;;6.22;;
53245;SDS011;39569;51.090;-1.786;2023-05-29T06:16:53;22.90;;;5.30;;
53245;SDS011;39569;51.090;-1.786;2023-05-29T06:19:21;12.52;;;5.47;;
53245;SDS011;39569;51.090;-1.786;2023-05-29T06:21:48;17.48;;;6.53;;
53245;SDS011;39569;51.090;-1.786;2023-05-29T06:24:15;20.48;;;5.68;;
53245;SDS011;39569;51.090;-1.786;2023-05-29T06:26:41;16.40;;;5.50;;
53245;SDS011;39569;51.090;-1.786;2023-05-29T06:29:08;19.45;;;7.15;;
53245;SDS011;39569;51.090;-1.786;2023-05-29T06:31:35;10.88;;;5.90;;
53245;SDS011;39569;51.090;-1.786;2023-05-29T06:34:03;12.95;;;5.63;;
53245;SDS011;39569;51.090;-1.786;2023-05-29T06:36:30;11.40;;;5.80;;
53245;SDS011;39569;51.090;-1.786;2023-05-29T06:38:58;14.20;;;6.00;;
53245;SDS011;39569;51.090;-1.786;2023-05-29T06:41:24;15.02;;;5.57;;
53245;SDS011;39569;51.090;-1.786;2023-05-29T06:43:51;16.80;;;5.78;;
53245;SDS011;39569;51.090;-1.786;2023-05-29T06:46:18;12.85;;;5.85;;
53245;SDS011;39569;51.090;-1.786;2023-05-29T06:48:45;14.50;;;4.88;;
53245;SDS011;39569;51.090;-1.786;2023-05-29T06:51:13;18.23;;;6.88;;
53245;SDS011;39569;51.090;-1.786;2023-05-29T06:53:40;12.82;;;6.00;;
53245;SDS011;39569;51.090;-1.786;2023-05-29T06:56:07;24.85;;;6.47;;
53245;SDS011;39569;51.090;-1.786;2023-05-29T06:58:34;11.38;;;5.18;;
53245;SDS011;39569;51.090;-1.786;2023-05-29T07:01:00;15.13;;;5.90;;
53245;SDS011;39569;51.090;-1.786;2023-05-29T07:03:27;12.48;;;6.13;;
53245;SDS011;39569;51.090;-1.786;2023-05-29T07:05:54;24.70;;;6.53;;
53245;SDS011;39569;51.090;-1.786;2023-05-29T07:08:22;11.48;;;6.13;;
53245;SDS011;39569;51.090;-1.786;2023-05-29T07:10:50;14.45;;;5.70;;
53245;SDS011;39569;51.090;-1.786;2023-05-29T07:13:17;11.93;;;5.18;;
53245;SDS011;39569;51.090;-1.786;2023-05-29T07:15:44;22.30;;;7.05;;
53245;SDS011;39569;51.090;-1.786;2023-05-29T07:18:11;18.52;;;4.28;;
53245;SDS011;39569;51.090;-1.786;2023-05-29T07:20:37;16.30;;;5.45;;
53245;SDS011;39569;51.090;-1.786;2023-05-29T07:23:04;17.70;;;5.05;;
53245;SDS011;39569;51.090;-1.786;2023-05-29T07:25:32;10.68;;;5.55;;
53245;SDS011;39569;51.090;-1.786;2023-05-29T07:27:59;22.77;;;7.30;;
53245;SDS011;39569;51.090;-1.786;2023-05-29T07:30:26;11.63;;;5.70;;
53245;SDS011;39569;51.090;-1.786;2023-05-29T07:32:53;14.93;;;5.45;;
53245;SDS011;39569;51.090;-1.786;2023-05-29T07:35:19;15.63;;;5.32;;
53245;SDS011;39569;51.090;-1.786;2023-05-29T07:37:46;12.27;;;5.07;;
53245;SDS011;39569;51.090;-1.786;2023-05-29T07:40:14;12.25;;;5.63;;
53245;SDS011;39569;51.090;-1.786;2023-05-29T07:42:43;14.75;;;5.68;;
53245;SDS011;39569;51.090;-1.786;2023-05-29T07:45:09;16.63;;;6.78;;
53245;SDS011;39569;51.090;-1.786;2023-05-29T07:47:36;17.05;;;6.20;;
53245;SDS011;39569;51.090;-1.786;2023-05-29T07:50:03;15.60;;;5.90;;
53245;SDS011;39569;51.090;-1.786;2023-05-29T07:52:31;14.20;;;5.90;;
53245;SDS011;39569;51.090;-1.786;2023-05-29T07:54:58;15.57;;;5.95;;
53245;SDS011;39569;51.090;-1.786;2023-05-29T07:57:26;16.17;;;5.35;;
53245;SDS011;39569;51.090;-1.786;2023-05-29T07:59:55;19.15;;;7.30;;
53245;SDS011;39569;51.090;-1.786;2023-05-29T08:02:22;21.10;;;6.20;;
53245;SDS011;39569;51.090;-1.786;2023-05-29T08:04:48;9.80;;;5.57;;
53245;SDS011;39569;51.090;-1.786;2023-05-29T08:07:15;12.32;;;5.47;;
53245;SDS011;39569;51.090;-1.786;2023-05-29T08:09:42;14.48;;;6.13;;
53245;SDS011;39569;51.090;-1.786;2023-05-29T08:12:09;9.77;;;5.15;;
53245;SDS011;39569;51.090;-1.786;2023-05-29T08:14:36;20.10;;;6.88;;
53245;SDS011;39569;51.090;-1.786;2023-05-29T08:17:04;14.52;;;5.93;;
53245;SDS011;39569;51.090;-1.786;2023-05-29T08:19:31;8.98;;;4.45;;
53245;SDS011;39569;51.090;-1.786;2023-05-29T08:21:58;17.40;;;6.05;;
53245;SDS011;39569;51.090;-1.786;2023-05-29T08:24:24;8.93;;;5.03;;
53245;SDS011;39569;51.090;-1.786;2023-05-29T08:26:53;12.70;;;6.10;;
53245;SDS011;39569;51.090;-1.786;2023-05-29T08:29:19;10.13;;;4.05;;
53245;SDS011;39569;51.090;-1.786;2023-05-29T08:31:46;10.18;;;4.78;;
53245;SDS011;39569;51.090;-1.786;2023-05-29T08:34:15;9.30;;;4.88;;
53245;SDS011;39569;51.090;-1.786;2023-05-29T08:36:41;13.35;;;6.13;;
53245;SDS011;39569;51.090;-1.786;2023-05-29T08:39:08;12.27;;;5.75;;
53245;SDS011;39569;51.090;-1.786;2023-05-29T08:41:37;11.98;;;5.30;;
53245;SDS011;39569;51.090;-1.786;2023-05-29T08:44:11;12.40;;;5.60;;
53245;SDS011;39569;51.090;-1.786;2023-05-29T08:46:40;9.57;;;4.93;;
53245;SDS011;39569;51.090;-1.786;2023-05-29T08:49:07;9.38;;;5.25;;
53245;SDS011;39569;51.090;-1.786;2023-05-29T08:51:37;10.10;;;4.35;;
53245;SDS011;39569;51.090;-1.786;2023-05-29T08:54:08;10.52;;;4.50;;
53245;SDS011;39569;51.090;-1.786;2023-05-29T08:56:36;8.40;;;4.50;;
53245;SDS011;39569;51.090;-1.786;2023-05-29T08:59:03;7.25;;;4.32;;
53245;SDS011;39569;51.090;-1.786;2023-05-29T09:01:31;10.82;;;3.72;;
53245;SDS011;39569;51.090;-1.786;2023-05-29T09:03:58;13.90;;;5.30;;
53245;SDS011;39569;51.090;-1.786;2023-05-29T09:06:24;8.18;;;4.65;;
53245;SDS011;39569;51.090;-1.786;2023-05-29T09:08:53;7.43;;;4.25;;
53245;SDS011;39569;51.090;-1.786;2023-05-29T09:11:21;9.00;;;4.70;;
53245;SDS011;39569;51.090;-1.786;2023-05-29T09:13:47;9.23;;;3.97;;
53245;SDS011;39569;51.090;-1.786;2023-05-29T09:16:15;5.47;;;4.53;;
53245;SDS011;39569;51.090;-1.786;2023-05-29T09:18:43;5.60;;;3.38;;
53245;SDS011;39569;51.090;-1.786;2023-05-29T09:21:15;11.00;;;4.07;;
53245;SDS011;39569;51.090;-1.786;2023-05-29T09:23:53;8.32;;;3.90;;
53245;SDS011;39569;51.090;-1.786;2023-05-29T09:26:20;12.55;;;4.05;;
53245;SDS011;39569;51.090;-1.786;2023-05-29T09:28:48;5.95;;;3.60;;
53245;SDS011;39569;51.090;-1.786;2023-05-29T09:31:17;8.52;;;4.45;;
53245;SDS011;39569;51.090;-1.786;2023-05-29T09:33:48;7.55;;;3.25;;
53245;SDS011;39569;51.090;-1.786;2023-05-29T09:36:19;7.22;;;4.15;;
53245;SDS011;39569;51.090;-1.786;2023-05-29T09:38:46;12.38;;;3.90;;
53245;SDS011;39569;51.090;-1.786;2023-05-29T09:41:15;15.18;;;4.70;;
53245;SDS011;39569;51.090;-1.786;2023-05-29T09:43:47;18.92;;;4.57;;
53245;SDS011;39569;51.090;-1.786;2023-05-29T09:46:15;7.00;;;4.00;;
53245;SDS011;39569;51.090;-1.786;2023-05-29T09:48:42;14.63;;;5.35;;
53245;SDS011;39569;51.090;-1.786;2023-05-29T09:51:18;6.97;;;3.65;;
53245;SDS011;39569;51.090;-1.786;2023-05-29T09:53:47;16.13;;;4.35;;
53245;SDS011;39569;51.090;-1.786;2023-05-29T09:56:17;5.15;;;3.42;;
53245;SDS011;39569;51.090;-1.786;2023-05-29T09:58:44;7.30;;;3.17;;
53245;SDS011;39569;51.090;-1.786;2023-05-29T10:01:12;9.32;;;3.60;;
53245;SDS011;39569;51.090;-1.786;2023-05-29T10:03:41;6.65;;;3.55;;
53245;SDS011;39569;51.090;-1.786;2023-05-29T10:06:09;7.07;;;3.40;;
53245;SDS011;39569;51.090;-1.786;2023-05-29T10:08:39;7.60;;;4.47;;
53245;SDS011;39569;51.090;-1.786;2023-05-29T10:11:14;14.70;;;4.07;;
53245;SDS011;39569;51.090;-1.786;2023-05-29T10:13:46;18.27;;;3.80;;
53245;SDS011;39569;51.090;-1.786;2023-05-29T10:16:16;8.50;;;3.42;;
53245;SDS011;39569;51.090;-1.786;2023-05-29T10:18:47;11.95;;;4.07;;
53245;SDS011;39569;51.090;-1.786;2023-05-29T10:21:19;7.40;;;4.13;;
53245;SDS011;39569;51.090;-1.786;2023-05-29T10:23:48;10.80;;;4.72;;
53245;SDS011;39569;51.090;-1.786;2023-05-29T10:26:18;5.93;;;3.85;;
53245;SDS011;39569;51.090;-1.786;2023-05-29T10:28:50;9.25;;;3.60;;
53245;SDS011;39569;51.090;-1.786;2023-05-29T10:31:22;7.10;;;3.63;;
53245;SDS011;39569;51.090;-1.786;2023-05-29T10:33:58;6.15;;;3.45;;
53245;SDS011;39569;51.090;-1.786;2023-05-29T10:36:40;18.25;;;4.40;;
53245;SDS011;39569;51.090;-1.786;2023-05-29T10:39:11;7.22;;;4.38;;
53245;SDS011;39569;51.090;-1.786;2023-05-29T10:41:38;15.27;;;3.95;;
53245;SDS011;39569;51.090;-1.786;2023-05-29T10:47:07;7.75;;;3.45;;
53245;SDS011;39569;51.090;-1.786;2023-05-29T10:49:37;5.10;;;2.92;;
53245;SDS011;39569;51.090;-1.786;2023-05-29T10:52:04;6.93;;;3.30;;
53245;SDS011;39569;51.090;-1.786;2023-05-29T10:54:41;12.25;;;4.38;;
53245;SDS011;39569;51.090;-1.786;2023-05-29T10:57:18;4.10;;;3.25;;
53245;SDS011;39569;51.090;-1.786;2023-05-29T10:59:48;11.10;;;3.85;;
53245;SDS011;39569;51.090;-1.786;2023-05-29T11:02:24;11.07;;;3.67;;
53245;SDS011;39569;51.090;-1.786;2023-05-29T11:05:04;8.77;;;3.03;;
53245;SDS011;39569;51.090;-1.786;2023-05-29T11:07:32;11.90;;;3.92;;
53245;SDS011;39569;51.090;-1.786;2023-05-29T11:10:10;5.38;;;3.25;;
53245;SDS011;39569;51.090;-1.786;2023-05-29T11:15:25;6.95;;;4.57;;
53245;SDS011;39569;51.090;-1.786;2023-05-29T11:17:52;7.97;;;4.05;;
53245;SDS011;39569;51.090;-1.786;2023-05-29T11:20:35;9.40;;;3.75;;
53245;SDS011;39569;51.090;-1.786;2023-05-29T11:23:04;17.25;;;5.30;;
53245;SDS011;39569;51.090;-1.786;2023-05-29T11:25:34;10.15;;;4.20;;
53245;SDS011;39569;51.090;-1.786;2023-05-29T11:28:01;13.32;;;3.78;;
53245;SDS011;39569;51.090;-1.786;2023-05-29T11:30:41;9.43;;;3.92;;
53245;SDS011;39569;51.090;-1.786;2023-05-29T11:33:10;5.95;;;3.42;;
53245;SDS011;39569;51.090;-1.786;2023-05-29T11:35:42;7.85;;;3.03;;
53245;SDS011;39569;51.090;-1.786;2023-05-29T11:38:10;5.45;;;3.42;;
53245;SDS011;39569;51.090;-1.786;2023-05-29T11:40:36;5.55;;;3.13;;
53245;SDS011;39569;51.090;-1.786;2023-05-29T11:43:03;10.15;;;4.30;;
53245;SDS011;39569;51.090;-1.786;2023-05-29T11:45:32;8.75;;;4.13;;
53245;SDS011;39569;51.090;-1.786;2023-05-29T11:48:01;5.75;;;3.58;;
53245;SDS011;39569;51.090;-1.786;2023-05-29T11:50:35;3.28;;;2.65;;
53245;SDS011;39569;51.090;-1.786;2023-05-29T11:53:06;9.68;;;3.72;;
53245;SDS011;39569;51.090;-1.786;2023-05-29T11:55:43;8.18;;;3.65;;
53245;SDS011;39569;51.090;-1.786;2023-05-29T11:58:10;8.95;;;4.55;;
53245;SDS011;39569;51.090;-1.786;2023-05-29T12:00:38;8.43;;;3.35;;
53245;SDS011;39569;51.090;-1.786;2023-05-29T12:03:07;8.15;;;3.60;;
53245;SDS011;39569;51.090;-1.786;2023-05-29T12:05:43;12.38;;;4.28;;
53245;SDS011;39569;51.090;-1.786;2023-05-29T12:08:11;5.43;;;3.58;;
53245;SDS011;39569;51.090;-1.786;2023-05-29T12:10:37;12.13;;;3.17;;
53245;SDS011;39569;51.090;-1.786;2023-05-29T12:13:13;11.52;;;3.05;;
53245;SDS011;39569;51.090;-1.786;2023-05-29T12:15:42;8.75;;;3.80;;
53245;SDS011;39569;51.090;-1.786;2023-05-29T12:18:10;8.95;;;3.50;;
53245;SDS011;39569;51.090;-1.786;2023-05-29T12:20:37;5.90;;;3.50;;
53245;SDS011;39569;51.090;-1.786;2023-05-29T12:23:04;7.32;;;3.35;;
53245;SDS011;39569;51.090;-1.786;2023-05-29T12:25:33;10.07;;;5.13;;
53245;SDS011;39569;51.090;-1.786;2023-05-29T12:28:02;9.60;;;4.60;;
53245;SDS011;39569;51.090;-1.786;2023-05-29T12:30:28;6.32;;;4.65;;
53245;SDS011;39569;51.090;-1.786;2023-05-29T12:32:56;18.30;;;4.68;;
53245;SDS011;39569;51.090;-1.786;2023-05-29T12:35:26;8.68;;;3.90;;
53245;SDS011;39569;51.090;-1.786;2023-05-29T12:37:54;10.73;;;3.97;;
53245;SDS011;39569;51.090;-1.786;2023-05-29T12:40:22;13.27;;;3.88;;
53245;SDS011;39569;51.090;-1.786;2023-05-29T12:42:53;12.30;;;4.03;;
53245;SDS011;39569;51.090;-1.786;2023-05-29T12:45:21;8.38;;;3.63;;
53245;SDS011;39569;51.090;-1.786;2023-05-29T12:47:51;6.72;;;3.10;;
53245;SDS011;39569;51.090;-1.786;2023-05-29T12:50:23;5.75;;;3.72;;
53245;SDS011;39569;51.090;-1.786;2023-05-29T12:52:55;5.88;;;3.80;;
53245;SDS011;39569;51.090;-1.786;2023-05-29T12:55:23;14.60;;;4.80;;
53245;SDS011;39569;51.090;-1.786;2023-05-29T12:57:50;11.25;;;4.68;;
53245;SDS011;39569;51.090;-1.786;2023-05-29T13:00:18;7.05;;;3.28;;
53245;SDS011;39569;51.090;-1.786;2023-05-29T13:02:46;10.68;;;4.43;;
53245;SDS011;39569;51.090;-1.786;2023-05-29T13:05:13;5.07;;;3.42;;
53245;SDS011;39569;51.090;-1.786;2023-05-29T13:07:40;7.93;;;4.60;;
53245;SDS011;39569;51.090;-1.786;2023-05-29T13:10:09;5.20;;;3.25;;
53245;SDS011;39569;51.090;-1.786;2023-05-29T13:12:36;6.40;;;2.72;;
53245;SDS011;39569;51.090;-1.786;2023-05-29T13:15:03;4.47;;;2.67;;
53245;SDS011;39569;51.090;-1.786;2023-05-29T13:17:31;9.23;;;3.80;;
53245;SDS011;39569;51.090;-1.786;2023-05-29T13:19:58;8.48;;;3.72;;
53245;SDS011;39569;51.090;-1.786;2023-05-29T13:22:24;7.38;;;3.33;;
53245;SDS011;39569;51.090;-1.786;2023-05-29T13:24:56;15.15;;;4.18;;
53245;SDS011;39569;51.090;-1.786;2023-05-29T13:27:24;7.78;;;4.63;;
53245;SDS011;39569;51.090;-1.786;2023-05-29T13:29:52;7.53;;;4.00;;
53245;SDS011;39569;51.090;-1.786;2023-05-29T13:32:20;5.72;;;3.63;;
53245;SDS011;39569;51.090;-1.786;2023-05-29T13:34:47;7.97;;;3.28;;
53245;SDS011;39569;51.090;-1.786;2023-05-29T13:37:13;11.32;;;3.45;;
53245;SDS011;39569;51.090;-1.786;2023-05-29T13:39:40;10.52;;;3.67;;
53245;SDS011;39569;51.090;-1.786;2023-05-29T13:42:07;5.28;;;3.45;;
53245;SDS011;39569;51.090;-1.786;2023-05-29T13:44:36;8.48;;;4.68;;
53245;SDS011;39569;51.090;-1.786;2023-05-29T13:47:04;6.55;;;3.28;;
53245;SDS011;39569;51.090;-1.786;2023-05-29T13:49:32;4.47;;;2.70;;
53245;SDS011;39569;51.090;-1.786;2023-05-29T13:51:58;3.75;;;3.03;;
53245;SDS011;39569;51.090;-1.786;2023-05-29T13:54:25;6.82;;;3.80;;
53245;SDS011;39569;51.090;-1.786;2023-05-29T13:56:54;5.65;;;3.40;;
53245;SDS011;39569;51.090;-1.786;2023-05-29T13:59:22;5.20;;;4.05;;
53245;SDS011;39569;51.090;-1.786;2023-05-29T14:01:50;6.50;;;3.63;;
53245;SDS011;39569;51.090;-1.786;2023-05-29T14:04:17;11.32;;;4.50;;
53245;SDS011;39569;51.090;-1.786;2023-05-29T14:06:44;9.63;;;4.63;;
53245;SDS011;39569;51.090;-1.786;2023-05-29T14:09:10;5.70;;;3.40;;
53245;SDS011;39569;51.090;-1.786;2023-05-29T14:11:38;5.50;;;3.67;;
53245;SDS011;39569;51.090;-1.786;2023-05-29T14:14:04;4.78;;;3.55;;
53245;SDS011;39569;51.090;-1.786;2023-05-29T14:16:31;4.93;;;3.45;;
53245;SDS011;39569;51.090;-1.786;2023-05-29T14:19:00;5.43;;;3.45;;
53245;SDS011;39569;51.090;-1.786;2023-05-29T14:21:27;9.32;;;3.40;;
53245;SDS011;39569;51.090;-1.786;2023-05-29T14:23:54;11.20;;;3.90;;
53245;SDS011;39569;51.090;-1.786;2023-05-29T14:26:20;5.63;;;3.13;;
53245;SDS011;39569;51.090;-1.786;2023-05-29T14:28:47;6.47;;;3.67;;
53245;SDS011;39569;51.090;-1.786;2023-05-29T14:31:14;8.88;;;4.70;;
53245;SDS011;39569;51.090;-1.786;2023-05-29T14:33:41;17.42;;;4.93;;
53245;SDS011;39569;51.090;-1.786;2023-05-29T14:36:09;5.32;;;3.83;;
53245;SDS011;39569;51.090;-1.786;2023-05-29T14:38:35;6.57;;;3.67;;